createdAt,value
2022-09-10T00:00:02.032Z,20.84
2022-09-10T00:05:02.340Z,21.84
2022-09-10T00:10:02.713Z,22.17
2022-09-10T00:14:59.814Z,22.40
2022-09-10T00:19:58.140Z,22.57
2022-09-10T00:24:59.485Z,22.68
2022-09-10T00:29:57.766Z,22.75
2022-09-10T00:34:59.092Z,22.83
2022-09-10T00:39:57.458Z,22.90
2022-09-10T00:44:56.292Z,22.97
2022-09-10T00:49:54.817Z,23.02
2022-09-10T00:54:54.119Z,23.04
2022-09-10T00:59:54.455Z,23.05
2022-09-10T01:04:53.776Z,23.10
2022-09-10T01:09:53.101Z,23.04
2022-09-10T01:14:52.419Z,23.12
2022-09-10T01:19:51.554Z,23.04
2022-09-10T01:24:50.887Z,23.02
2022-09-10T01:29:50.009Z,23.04
2022-09-10T01:34:48.377Z,23.01
2022-09-10T01:39:49.635Z,23.09
2022-09-10T01:44:46.730Z,23.12
2022-09-10T01:49:46.086Z,23.13
2022-09-10T01:54:46.350Z,23.13
2022-09-10T01:59:44.659Z,23.13
2022-09-10T02:04:47.060Z,23.10
2022-09-10T02:09:44.161Z,23.10
2022-09-10T02:14:42.463Z,23.12
2022-09-10T02:19:41.768Z,23.13
2022-09-10T02:24:41.107Z,23.12
2022-09-10T02:29:41.425Z,23.09
2022-09-10T02:34:39.747Z,23.09
2022-09-10T02:39:39.090Z,23.09
2022-09-10T02:44:38.404Z,23.05
2022-09-10T02:49:38.730Z,23.05
2022-09-10T02:54:37.028Z,23.05
2022-09-10T02:59:37.342Z,23.07
2022-09-10T03:04:35.723Z,23.07
2022-09-10T03:09:34.866Z,23.09
2022-09-10T03:14:34.173Z,23.07
2022-09-10T03:19:33.501Z,23.05
2022-09-10T03:24:33.620Z,23.04
2022-09-10T03:29:31.921Z,22.97
2022-09-10T03:34:32.204Z,22.94
2022-09-10T03:39:31.535Z,22.90
2022-09-10T03:44:31.846Z,22.79
2022-09-10T03:49:29.150Z,22.75
2022-09-10T03:54:28.437Z,22.77
2022-09-10T03:59:27.734Z,22.77
2022-09-10T04:04:27.007Z,22.75
2022-09-10T04:09:27.345Z,22.77
2022-09-10T04:14:24.655Z,22.80
2022-09-10T04:19:25.978Z,22.80
2022-09-10T04:24:24.268Z,22.80
2022-09-10T04:29:24.574Z,22.80
2022-09-10T04:34:22.876Z,22.79
2022-09-10T04:39:24.224Z,22.77
2022-09-10T04:44:21.600Z,22.79
2022-09-10T04:49:20.738Z,22.76
2022-09-10T04:54:21.045Z,22.76
2022-09-10T04:59:19.355Z,22.76
2022-09-10T05:04:19.641Z,22.73
2022-09-10T05:09:17.916Z,22.73
2022-09-10T05:14:18.197Z,22.68
2022-09-10T05:19:17.494Z,22.68
2022-09-10T05:24:16.804Z,22.67
2022-09-10T05:29:15.095Z,22.64
2022-09-10T05:34:16.424Z,22.64
2022-09-10T05:39:14.750Z,22.60
2022-09-10T05:44:13.101Z,22.61
2022-09-10T05:49:14.251Z,22.55
2022-09-10T05:54:11.387Z,22.52
2022-09-10T05:59:10.560Z,22.55
2022-09-10T06:04:10.720Z,22.55
2022-09-10T06:09:09.034Z,22.60
2022-09-10T06:14:08.229Z,22.60
2022-09-10T06:19:08.329Z,22.58
2022-09-10T06:24:05.735Z,22.60
2022-09-10T06:29:06.861Z,22.61
2022-09-10T06:34:05.026Z,22.61
2022-09-10T06:39:04.274Z,22.64
2022-09-10T06:44:05.495Z,22.62
2022-09-10T06:49:03.602Z,22.62
2022-09-10T06:54:01.934Z,22.65
2022-09-10T06:59:02.577Z,22.67
2022-09-10T07:04:02.477Z,22.64
2022-09-10T07:08:59.754Z,22.62
2022-09-10T07:13:59.039Z,22.64
2022-09-10T07:18:58.376Z,22.64
2022-09-10T07:23:58.656Z,22.64
2022-09-10T07:28:55.944Z,22.64
2022-09-10T07:33:56.270Z,22.67
2022-09-10T07:38:56.547Z,22.67
2022-09-10T07:43:54.833Z,22.68
2022-09-10T07:48:55.138Z,22.70
2022-09-10T07:53:54.412Z,22.67
2022-09-10T07:58:52.691Z,22.61
2022-09-10T08:03:53.960Z,22.61
2022-09-10T08:08:51.233Z,22.49
2022-09-10T08:13:50.503Z,23.00
2022-09-10T08:18:49.803Z,23.97
2022-09-10T08:23:50.074Z,25.20
2022-09-10T08:28:49.354Z,26.44
2022-09-10T08:33:48.634Z,26.54
2022-09-10T08:38:47.916Z,26.69
2022-09-10T08:43:46.207Z,26.85
2022-09-10T08:48:46.537Z,27.19
2022-09-10T08:53:45.826Z,27.67
2022-09-10T08:58:44.165Z,27.96
2022-09-10T09:03:43.451Z,28.22
2022-09-10T09:08:42.895Z,29.79
2022-09-10T09:13:42.026Z,29.24
2022-09-10T09:18:42.344Z,29.00
2022-09-10T09:23:56.886Z,28.54
2022-09-10T09:28:40.997Z,28.40
2022-09-10T09:33:39.138Z,27.99
2022-09-10T09:38:38.505Z,27.85
2022-09-10T09:43:37.687Z,27.57
2022-09-10T09:48:37.005Z,27.25
2022-09-10T09:53:37.280Z,27.25
2022-09-10T09:58:37.643Z,26.89
2022-09-10T10:04:12.974Z,26.47
2022-09-10T10:08:35.040Z,25.77
2022-09-10T10:13:33.329Z,25.95
2022-09-10T10:18:32.666Z,26.23
2022-09-10T10:23:32.981Z,26.23
2022-09-10T10:28:32.306Z,26.15
2022-09-10T10:33:30.411Z,26.02
2022-09-10T10:38:30.768Z,25.94
2022-09-10T10:43:29.309Z,25.83
2022-09-10T10:48:28.007Z,25.75
2022-09-10T10:53:27.373Z,25.61
2022-09-10T10:58:26.512Z,25.52
2022-09-10T11:03:25.772Z,25.45
2022-09-10T11:08:27.073Z,25.39
2022-09-10T11:13:25.398Z,25.28
2022-09-10T11:18:23.660Z,25.27
2022-09-10T11:23:24.914Z,25.18
2022-09-10T11:28:23.163Z,25.10
2022-09-10T11:33:22.448Z,25.08
2022-09-10T11:38:24.860Z,25.08
2022-09-10T11:43:19.967Z,25.00
2022-09-10T11:48:19.075Z,25.00
2022-09-10T11:53:18.324Z,25.02
2022-09-10T11:58:18.493Z,25.02
2022-09-10T12:03:16.729Z,24.98
2022-09-10T12:08:15.874Z,24.93
2022-09-10T12:13:15.043Z,24.95
2022-09-10T12:18:14.207Z,24.93
2022-09-10T12:23:13.397Z,24.90
2022-09-10T12:28:13.566Z,24.80
2022-09-10T12:33:11.750Z,24.80
2022-09-10T12:38:10.916Z,24.80
2022-09-10T12:43:11.089Z,24.76
2022-09-10T12:48:09.312Z,24.76
2022-09-10T12:53:08.476Z,24.68
2022-09-10T12:58:08.646Z,24.64
2022-09-10T13:03:06.815Z,24.67
2022-09-10T13:08:06.048Z,24.64
2022-09-10T13:13:05.202Z,24.60
2022-09-10T13:18:05.432Z,24.57
2022-09-10T13:23:03.624Z,24.53
2022-09-10T13:28:02.815Z,24.20
2022-09-10T13:33:02.004Z,24.22
2022-09-10T13:38:02.195Z,24.10
2022-09-10T13:43:01.381Z,23.98
2022-09-10T13:47:59.524Z,23.93
2022-09-10T13:53:00.699Z,23.93
2022-09-10T13:57:58.881Z,24.08
2022-09-10T14:02:57.129Z,24.09
2022-09-10T14:07:56.362Z,24.20
2022-09-10T14:12:56.550Z,24.78
2022-09-10T14:17:54.742Z,25.24
2022-09-10T14:22:54.928Z,26.28
2022-09-10T14:27:55.332Z,26.65
2022-09-10T14:32:53.317Z,26.45
2022-09-10T14:37:53.482Z,26.67
2022-09-10T14:42:50.690Z,26.52
2022-09-10T14:47:50.881Z,26.33
2022-09-10T14:52:50.047Z,26.37
2022-09-10T14:57:48.220Z,26.20
2022-09-10T15:02:49.410Z,26.07
2022-09-10T15:07:48.567Z,26.21
2022-09-10T15:12:46.709Z,26.36
2022-09-10T15:17:44.875Z,26.48
2022-09-10T15:22:44.033Z,26.73
2022-09-10T15:27:44.214Z,27.06
2022-09-10T15:32:42.393Z,23.65
2022-09-10T15:37:41.579Z,23.60
2022-09-10T15:42:41.726Z,22.98
2022-09-10T15:47:39.885Z,21.16
2022-09-10T15:52:40.098Z,22.12
2022-09-10T15:57:38.281Z,21.50
2022-09-10T16:02:36.520Z,22.70
2022-09-10T16:07:36.715Z,22.49
2022-09-10T16:12:35.904Z,22.39
2022-09-10T16:17:35.100Z,22.52
2022-09-10T16:22:34.435Z,21.68
2022-09-10T16:27:33.414Z,22.14
2022-09-10T16:32:32.706Z,21.27
2022-09-10T16:37:31.883Z,21.68
2022-09-10T16:42:32.115Z,20.70
2022-09-10T16:47:31.294Z,21.44
2022-09-10T16:52:31.487Z,21.53
2022-09-10T16:57:28.769Z,21.53
2022-09-10T17:02:28.928Z,22.12
2022-09-10T17:07:27.114Z,21.64
2022-09-10T17:12:26.237Z,21.42
2022-09-10T17:17:26.573Z,21.10
2022-09-10T17:22:26.909Z,21.27
2022-09-10T17:27:25.752Z,21.50
2022-09-10T17:32:23.541Z,21.68
2022-09-10T17:37:24.651Z,21.64
2022-09-10T17:42:23.093Z,21.52
2022-09-10T17:47:22.221Z,21.12
2022-09-10T17:52:21.522Z,20.26
2022-09-10T17:57:20.827Z,20.48
2022-09-10T18:02:22.328Z,20.01
2022-09-10T18:07:19.437Z,19.62
2022-09-10T18:12:18.804Z,20.70
2022-09-10T18:17:17.816Z,21.06
2022-09-10T18:22:16.974Z,20.85
2022-09-10T18:27:15.287Z,20.85
2022-09-10T18:32:15.512Z,20.92
2022-09-10T18:37:13.622Z,21.19
2022-09-10T18:42:13.962Z,20.79
2022-09-10T18:47:34.240Z,20.33
2022-09-10T18:52:15.188Z,20.59
2022-09-10T18:57:10.577Z,20.38
2022-09-10T19:02:10.841Z,21.09
2022-09-10T19:07:09.009Z,20.32
2022-09-10T19:12:07.190Z,20.39
2022-09-10T19:17:07.370Z,20.70
2022-09-10T19:22:07.668Z,20.89
2022-09-10T19:27:05.589Z,21.35
2022-09-10T19:32:04.901Z,20.97
2022-09-10T19:37:04.192Z,20.70
2022-09-10T19:42:05.707Z,20.66
2022-09-10T19:47:03.094Z,21.32
2022-09-10T19:52:02.163Z,20.92
2022-09-10T19:57:01.502Z,20.70
2022-09-10T20:02:02.805Z,20.72
2022-09-10T20:07:00.953Z,20.32
2022-09-10T20:11:59.464Z,21.22
2022-09-10T20:16:58.392Z,20.99
2022-09-10T20:21:57.743Z,21.10
2022-09-10T20:26:56.851Z,21.40
2022-09-10T20:31:57.134Z,21.25
2022-09-10T20:36:56.449Z,20.11
2022-09-10T20:41:55.746Z,20.92
2022-09-10T20:46:55.024Z,21.09
2022-09-10T20:51:54.366Z,20.20
2022-09-10T20:56:52.643Z,20.67
2022-09-10T21:01:52.004Z,20.91
2022-09-10T21:06:52.150Z,21.22
2022-09-10T21:11:50.438Z,21.28
2022-09-10T21:16:50.725Z,21.59
2022-09-10T21:21:49.020Z,21.03
2022-09-10T21:26:48.310Z,21.56
2022-09-10T21:31:47.603Z,21.35
2022-09-10T21:36:46.931Z,21.54
2022-09-10T21:41:46.248Z,21.42
2022-09-10T21:46:45.585Z,20.91
2022-09-10T21:51:43.891Z,21.37
2022-09-10T21:56:44.037Z,20.50
2022-09-10T22:01:43.466Z,20.77
2022-09-10T22:06:43.535Z,21.61
2022-09-10T22:11:42.749Z,21.46
2022-09-10T22:16:40.915Z,21.44
2022-09-10T22:21:41.066Z,20.98
2022-09-10T22:26:40.237Z,21.13
2022-09-10T22:31:38.452Z,20.97
2022-09-10T22:36:37.637Z,20.13
2022-09-10T22:41:37.840Z,21.46
2022-09-10T22:46:36.116Z,21.09
2022-09-10T22:51:34.337Z,21.58
2022-09-10T22:56:35.528Z,21.62
2022-09-10T23:01:33.737Z,21.28
2022-09-10T23:06:32.902Z,20.72
2022-09-10T23:11:33.111Z,20.85
2022-09-10T23:16:31.299Z,20.99
2022-09-10T23:21:30.523Z,20.11
2022-09-10T23:26:29.720Z,21.47
2022-09-10T23:31:28.928Z,21.69
2022-09-10T23:36:28.084Z,21.09
2022-09-10T23:41:28.277Z,21.06
2022-09-10T23:46:26.527Z,21.13
2022-09-10T23:51:26.768Z,21.13
2022-09-10T23:56:26.947Z,20.94
